createdAt,value
2019-04-22T00:00:57.679Z,11.55
2019-04-22T00:03:33.896Z,7.03
2019-04-22T00:06:16.561Z,7.58
2019-04-22T00:08:49.123Z,5.30
2019-04-22T00:11:19.533Z,7.58
2019-04-22T00:13:49.167Z,7.28
2019-04-22T00:16:10.877Z,6.65
2019-04-22T00:18:54.906Z,8.38
2019-04-22T00:21:12.630Z,8.90
2019-04-22T00:23:39.335Z,5.25
2019-04-22T00:26:09.722Z,5.35
2019-04-22T00:28:41.548Z,5.70
2019-04-22T00:31:11.811Z,6.70
2019-04-22T00:33:31.279Z,6.85
2019-04-22T00:36:04.316Z,7.85
2019-04-22T00:38:34.945Z,6.62
2019-04-22T00:41:00.527Z,9.90
2019-04-22T00:43:37.446Z,6.22
2019-04-22T00:45:56.345Z,9.45
2019-04-22T00:48:27.363Z,7.35
2019-04-22T00:51:01.286Z,6.72
2019-04-22T00:53:25.314Z,5.72
2019-04-22T00:55:59.206Z,6.15
2019-04-22T00:58:24.119Z,5.85
2019-04-22T01:00:54.555Z,5.87
2019-04-22T01:03:25.959Z,7.72
2019-04-22T01:05:47.119Z,7.45
2019-04-22T01:08:21.101Z,5.37
2019-04-22T01:10:47.932Z,6.08
2019-04-22T01:13:21.458Z,6.70
2019-04-22T01:15:47.794Z,5.95
2019-04-22T01:18:10.786Z,7.05
2019-04-22T01:21:00.649Z,8.43
2019-04-22T01:23:03.824Z,4.92
2019-04-22T01:25:34.889Z,8.43
2019-04-22T01:27:57.156Z,8.98
2019-04-22T01:30:23.250Z,8.08
2019-04-22T01:32:44.913Z,9.20
2019-04-22T01:35:20.755Z,8.90
2019-04-22T01:37:54.191Z,8.20
2019-04-22T01:40:31.568Z,11.75
2019-04-22T01:43:03.804Z,9.55
2019-04-22T01:45:31.351Z,7.37
2019-04-22T01:48:00.835Z,6.83
2019-04-22T01:50:30.740Z,8.83
2019-04-22T01:53:01.982Z,8.00
2019-04-22T01:57:56.679Z,7.00
2019-04-22T02:00:15.266Z,7.17
2019-04-22T02:02:48.837Z,7.87
2019-04-22T02:05:17.680Z,7.75
2019-04-22T02:07:50.265Z,7.72
2019-04-22T02:10:22.846Z,15.18
2019-04-22T02:12:47.069Z,7.97
2019-04-22T02:15:13.168Z,7.70
2019-04-22T02:17:49.211Z,7.87
2019-04-22T02:20:13.636Z,7.70
2019-04-22T02:23:40.264Z,7.83
2019-04-22T02:25:51.050Z,8.45
2019-04-22T02:28:25.737Z,8.13
2019-04-22T02:31:01.985Z,8.18
2019-04-22T02:33:51.330Z,7.05
2019-04-22T02:35:59.970Z,9.18
2019-04-22T02:38:31.062Z,8.48
2019-04-22T02:40:56.261Z,10.98
2019-04-22T02:43:14.525Z,9.88
2019-04-22T02:45:52.221Z,9.33
2019-04-22T02:48:18.797Z,6.60
2019-04-22T02:50:36.653Z,8.70
2019-04-22T02:53:05.874Z,7.85
2019-04-22T02:55:32.362Z,9.43
2019-04-22T02:57:55.480Z,8.63
2019-04-22T03:00:38.180Z,8.63
2019-04-22T03:03:12.768Z,9.13
2019-04-22T03:05:37.120Z,7.97
2019-04-22T03:07:58.194Z,9.55
2019-04-22T03:10:29.900Z,8.10
2019-04-22T03:13:10.988Z,7.35
2019-04-22T03:15:12.068Z,7.45
2019-04-22T03:17:49.469Z,7.50
2019-04-22T03:20:11.091Z,11.05
2019-04-22T03:22:47.631Z,9.78
2019-04-22T03:25:42.297Z,9.48
2019-04-22T03:35:30.436Z,8.88
2019-04-22T03:37:53.341Z,10.03
2019-04-22T03:42:32.689Z,9.45
2019-04-22T03:45:17.656Z,7.83
2019-04-22T03:47:34.218Z,7.97
2019-04-22T03:50:07.290Z,11.03
2019-04-22T03:52:22.166Z,7.80
2019-04-22T03:57:44.716Z,10.78
2019-04-22T04:02:28.987Z,8.38
2019-04-22T04:04:51.019Z,7.50
2019-04-22T04:07:37.600Z,8.40
2019-04-22T04:12:28.823Z,8.30
2019-04-22T04:15:09.419Z,8.28
2019-04-22T04:17:20.686Z,11.65
2019-04-22T04:27:27.702Z,8.88
2019-04-22T04:32:25.183Z,7.15
2019-04-22T04:34:56.295Z,7.60
2019-04-22T04:39:36.411Z,8.55
2019-04-22T04:42:18.277Z,9.48
2019-04-22T04:44:59.209Z,8.35
2019-04-22T04:47:06.001Z,9.35
2019-04-22T04:49:24.259Z,8.20
2019-04-22T04:54:30.702Z,8.73
2019-04-22T04:56:50.821Z,7.58
2019-04-22T04:59:28.171Z,10.53
2019-04-22T05:04:31.250Z,7.15
2019-04-22T05:06:53.549Z,9.10
2019-04-22T05:09:15.103Z,8.85
2019-04-22T05:11:45.261Z,7.65
2019-04-22T05:21:21.946Z,8.28
2019-04-22T05:24:02.659Z,7.08
2019-04-22T05:26:28.026Z,8.70
2019-04-22T05:28:49.999Z,7.85
2019-04-22T05:31:31.071Z,7.15
2019-04-22T05:33:48.328Z,6.12
2019-04-22T05:38:49.521Z,8.63
2019-04-22T05:41:11.611Z,15.03
2019-04-22T05:43:42.668Z,12.30
2019-04-22T05:46:09.486Z,9.48
2019-04-22T05:48:39.820Z,8.38
2019-04-22T05:51:04.155Z,6.50
2019-04-22T05:53:37.646Z,10.32
2019-04-22T05:56:01.561Z,9.80
2019-04-22T05:58:32.935Z,12.95
2019-04-22T06:03:37.888Z,7.72
2019-04-22T06:06:06.384Z,10.58
2019-04-22T06:08:29.268Z,9.23
2019-04-22T06:10:58.127Z,7.10
2019-04-22T06:13:26.282Z,8.88
2019-04-22T06:15:53.007Z,6.87
2019-04-22T06:18:27.075Z,7.17
2019-04-22T06:21:00.543Z,7.00
2019-04-22T06:23:36.112Z,9.90
2019-04-22T06:26:05.828Z,7.15
2019-04-22T06:28:28.844Z,6.03
2019-04-22T06:33:20.628Z,11.63
2019-04-22T06:35:54.159Z,6.75
2019-04-22T06:38:31.527Z,5.75
2019-04-22T06:40:46.564Z,6.75
2019-04-22T06:43:19.992Z,8.35
2019-04-22T06:45:57.707Z,9.13
2019-04-22T06:50:44.861Z,6.37
2019-04-22T06:53:07.104Z,8.98
2019-04-22T06:55:35.652Z,5.35
2019-04-22T06:58:04.791Z,6.30
2019-04-22T07:00:30.606Z,7.85
2019-04-22T07:05:27.889Z,5.53
2019-04-22T07:08:12.984Z,4.55
2019-04-22T07:10:37.928Z,8.05
2019-04-22T07:12:54.282Z,4.95
2019-04-22T07:15:35.791Z,6.75
2019-04-22T07:17:57.690Z,10.30
2019-04-22T07:20:17.294Z,4.90
2019-04-22T07:22:45.386Z,4.65
2019-04-22T07:25:32.774Z,4.25
2019-04-22T07:27:46.069Z,4.83
2019-04-22T07:30:15.386Z,4.72
2019-04-22T07:33:00.648Z,5.22
2019-04-22T07:35:18.916Z,7.65
2019-04-22T07:40:02.276Z,3.90
2019-04-22T07:45:08.466Z,5.12
2019-04-22T07:47:32.706Z,6.25
2019-04-22T07:50:03.897Z,7.72
2019-04-22T07:52:32.006Z,5.20
2019-04-22T07:54:58.338Z,3.80
2019-04-22T07:59:59.570Z,4.30
2019-04-22T08:02:26.217Z,4.42
2019-04-22T08:04:58.000Z,5.72
2019-04-22T08:07:22.546Z,5.25
2019-04-22T08:09:55.719Z,4.65
2019-04-22T08:12:14.667Z,5.03
2019-04-22T08:14:45.634Z,7.78
2019-04-22T08:17:38.769Z,3.83
2019-04-22T08:19:44.655Z,4.20
2019-04-22T08:22:11.653Z,4.53
2019-04-22T08:24:45.071Z,4.22
2019-04-22T08:27:04.598Z,4.55
2019-04-22T08:29:46.940Z,4.55
2019-04-22T08:32:01.079Z,4.67
2019-04-22T08:34:29.593Z,4.92
2019-04-22T08:37:25.629Z,6.67
2019-04-22T08:39:25.255Z,3.30
2019-04-22T08:41:51.464Z,3.47
2019-04-22T08:44:41.052Z,4.40
2019-04-22T08:47:05.793Z,3.58
2019-04-22T08:49:30.457Z,4.95
2019-04-22T08:51:58.875Z,3.42
2019-04-22T08:54:27.896Z,3.50
2019-04-22T08:56:51.044Z,3.52
2019-04-22T08:59:22.107Z,3.58
2019-04-22T09:01:49.201Z,4.35
2019-04-22T09:04:16.258Z,4.60
2019-04-22T09:09:27.299Z,6.35
2019-04-22T09:11:56.395Z,4.95
2019-04-22T09:14:24.244Z,3.40
2019-04-22T09:16:52.688Z,4.35
2019-04-22T09:19:18.036Z,4.53
2019-04-22T09:21:54.548Z,4.05
2019-04-22T09:26:47.423Z,5.15
2019-04-22T09:29:26.977Z,4.35
2019-04-22T09:31:53.955Z,5.00
2019-04-22T09:34:15.686Z,4.72
2019-04-22T09:36:53.274Z,3.77
2019-04-22T09:39:15.652Z,7.58
2019-04-22T09:41:48.360Z,5.42
2019-04-22T09:44:19.092Z,4.03
2019-04-22T09:46:47.231Z,4.90
2019-04-22T09:49:19.614Z,5.22
2019-04-22T09:51:44.916Z,4.42
2019-04-22T09:56:43.817Z,4.08
2019-04-22T09:59:18.755Z,5.80
2019-04-22T10:01:59.716Z,5.83
2019-04-22T10:04:25.467Z,4.90
2019-04-22T10:06:36.643Z,3.85
2019-04-22T10:09:34.703Z,4.72
2019-04-22T10:14:12.506Z,3.85
2019-04-22T10:16:43.630Z,6.58
2019-04-22T10:19:12.002Z,4.28
2019-04-22T10:21:47.876Z,3.65
2019-04-22T10:24:09.510Z,4.97
2019-04-22T10:26:39.875Z,3.95
2019-04-22T10:29:10.800Z,4.03
2019-04-22T10:31:43.620Z,4.22
2019-04-22T10:33:56.062Z,4.33
2019-04-22T10:36:13.136Z,7.40
2019-04-22T10:38:44.512Z,3.95
2019-04-22T10:41:12.441Z,5.33
2019-04-22T10:43:41.095Z,4.33
2019-04-22T10:46:10.378Z,4.35
2019-04-22T10:48:38.217Z,4.78
2019-04-22T10:51:06.564Z,3.70
2019-04-22T10:53:35.556Z,4.05
2019-04-22T10:56:03.331Z,4.40
2019-04-22T10:58:30.982Z,3.95
2019-04-22T11:01:00.035Z,4.15
2019-04-22T11:03:28.431Z,3.50
2019-04-22T11:05:57.092Z,4.97
2019-04-22T11:08:33.914Z,3.72
2019-04-22T11:11:06.856Z,3.72
2019-04-22T11:13:24.261Z,4.60
2019-04-22T11:15:52.975Z,3.72
2019-04-22T11:18:20.563Z,3.37
2019-04-22T11:20:49.369Z,3.87
2019-04-22T11:23:18.598Z,5.37
2019-04-22T11:25:47.590Z,3.83
2019-04-22T11:28:16.102Z,4.60
2019-04-22T11:30:44.721Z,8.53
2019-04-22T11:33:14.150Z,4.58
2019-04-22T11:35:41.900Z,7.15
2019-04-22T11:38:10.779Z,3.27
2019-04-22T11:40:42.182Z,3.37
2019-04-22T11:43:08.076Z,4.12
2019-04-22T11:45:35.624Z,4.50
2019-04-22T11:48:03.590Z,4.17
2019-04-22T11:50:31.436Z,3.50
2019-04-22T11:53:00.562Z,4.83
2019-04-22T11:55:28.749Z,4.58
2019-04-22T11:57:56.443Z,5.53
2019-04-22T12:00:28.927Z,5.15
2019-04-22T12:05:25.942Z,4.12
2019-04-22T12:07:55.107Z,3.50
2019-04-22T12:10:30.939Z,3.40
2019-04-22T12:12:53.944Z,4.80
2019-04-22T12:15:22.668Z,11.10
2019-04-22T12:17:50.989Z,3.98
2019-04-22T12:20:18.382Z,3.33
2019-04-22T12:22:47.328Z,3.87
2019-04-22T12:25:29.217Z,3.52
2019-04-22T12:27:45.294Z,3.37
2019-04-22T12:30:14.617Z,5.50
2019-04-22T12:32:43.589Z,3.25
2019-04-22T12:35:11.607Z,4.22
2019-04-22T12:37:47.238Z,4.40
2019-04-22T12:40:08.869Z,3.85
2019-04-22T12:42:37.590Z,2.90
2019-04-22T12:45:08.257Z,5.12
2019-04-22T12:47:38.139Z,5.55
2019-04-22T12:50:18.655Z,6.37
2019-04-22T12:52:47.860Z,6.72
2019-04-22T12:55:09.980Z,4.35
2019-04-22T12:57:38.897Z,2.83
2019-04-22T13:00:07.948Z,3.15
2019-04-22T13:02:36.745Z,4.62
2019-04-22T13:05:06.007Z,4.10
2019-04-22T13:07:33.773Z,3.62
2019-04-22T13:10:03.921Z,3.02
2019-04-22T13:12:32.967Z,3.70
2019-04-22T13:15:01.519Z,4.58
2019-04-22T13:17:32.887Z,3.77
2019-04-22T13:20:00.713Z,4.00
2019-04-22T13:22:28.532Z,4.12
2019-04-22T13:24:57.523Z,4.83
2019-04-22T13:27:26.821Z,5.12
2019-04-22T13:29:55.181Z,4.33
2019-04-22T13:32:22.945Z,6.25
2019-04-22T13:34:55.373Z,6.97
2019-04-22T13:37:20.896Z,5.60
2019-04-22T13:39:49.265Z,5.25
2019-04-22T13:42:20.379Z,4.67
2019-04-22T13:44:46.707Z,3.85
2019-04-22T13:47:32.582Z,7.80
2019-04-22T13:50:17.841Z,5.97
2019-04-22T13:52:49.157Z,7.10
2019-04-22T13:55:05.700Z,6.00
2019-04-22T13:57:32.589Z,3.42
2019-04-22T13:59:46.942Z,5.37
2019-04-22T14:02:16.870Z,6.53
2019-04-22T14:04:46.619Z,3.92
2019-04-22T14:07:14.764Z,3.60
2019-04-22T14:09:42.447Z,4.20
2019-04-22T14:12:13.645Z,3.20
2019-04-22T14:14:42.782Z,3.22
2019-04-22T14:17:09.154Z,5.55
2019-04-22T14:19:36.817Z,4.90
2019-04-22T14:22:04.726Z,4.83
2019-04-22T14:24:32.195Z,4.42
2019-04-22T14:27:15.184Z,3.55
2019-04-22T14:29:29.446Z,5.62
2019-04-22T14:32:05.551Z,5.60
2019-04-22T14:34:28.345Z,3.17
2019-04-22T14:36:57.321Z,4.50
2019-04-22T14:39:26.153Z,4.22
2019-04-22T14:42:09.848Z,5.17
2019-04-22T14:45:15.442Z,3.47
2019-04-22T14:49:49.626Z,3.33
2019-04-22T14:52:19.410Z,5.20
2019-04-22T14:54:34.853Z,4.90
2019-04-22T14:56:52.022Z,4.53
2019-04-22T14:59:20.843Z,6.47
2019-04-22T15:01:49.792Z,5.55
2019-04-22T15:04:19.404Z,4.90
2019-04-22T15:06:50.130Z,3.30
2019-04-22T15:09:16.625Z,5.87
2019-04-22T15:11:57.019Z,3.50
2019-04-22T15:14:15.234Z,4.25
2019-04-22T15:16:55.048Z,3.85
2019-04-22T15:19:25.612Z,5.55
2019-04-22T15:21:54.555Z,5.75
2019-04-22T15:24:22.943Z,5.50
2019-04-22T15:26:52.643Z,4.53
2019-04-22T15:29:21.118Z,7.55
2019-04-22T15:31:49.251Z,3.72
2019-04-22T15:34:18.532Z,3.42
2019-04-22T15:36:46.449Z,3.85
2019-04-22T15:39:15.558Z,4.65
2019-04-22T15:41:55.595Z,6.92
2019-04-22T15:44:13.016Z,6.15
2019-04-22T15:46:40.488Z,4.80
2019-04-22T15:49:09.786Z,9.38
2019-04-22T15:51:38.722Z,4.80
2019-04-22T15:54:07.586Z,6.80
2019-04-22T15:56:36.952Z,4.60
2019-04-22T15:59:17.261Z,5.90
2019-04-22T16:01:37.841Z,7.15
2019-04-22T16:04:04.895Z,5.12
2019-04-22T16:06:32.902Z,8.73
2019-04-22T16:09:00.510Z,8.45
2019-04-22T16:11:29.667Z,9.83
2019-04-22T16:13:57.321Z,8.00
2019-04-22T16:16:25.097Z,8.50
2019-04-22T16:18:54.093Z,4.97
2019-04-22T16:21:32.752Z,3.85
2019-04-22T16:24:11.021Z,4.45
2019-04-22T16:26:44.522Z,6.85
2019-04-22T16:29:15.688Z,3.70
2019-04-22T16:31:43.548Z,3.50
2019-04-22T16:34:11.416Z,4.90
2019-04-22T16:36:40.632Z,3.75
2019-04-22T16:39:08.970Z,7.35
2019-04-22T16:41:37.161Z,5.92
2019-04-22T16:44:06.943Z,5.90
2019-04-22T16:46:34.681Z,4.37
2019-04-22T16:49:03.469Z,5.05
2019-04-22T16:51:32.068Z,6.40
2019-04-22T16:54:00.076Z,4.95
2019-04-22T16:56:29.656Z,6.05
2019-04-22T16:58:58.890Z,4.47
2019-04-22T17:01:43.937Z,4.85
2019-04-22T17:04:16.541Z,4.30
2019-04-22T17:09:19.651Z,2.95
2019-04-22T17:11:49.741Z,3.42
2019-04-22T17:14:25.295Z,4.33
2019-04-22T17:16:48.442Z,6.42
2019-04-22T17:19:17.339Z,6.10
2019-04-22T17:21:45.629Z,4.87
2019-04-22T17:24:14.255Z,3.22
2019-04-22T17:26:42.356Z,3.52
2019-04-22T17:29:10.410Z,3.08
2019-04-22T17:31:40.893Z,6.87
2019-04-22T17:34:07.467Z,6.58
2019-04-22T17:36:36.241Z,6.15
2019-04-22T17:39:18.341Z,4.90
2019-04-22T17:41:55.368Z,5.50
2019-04-22T17:44:51.178Z,6.50
2019-04-22T17:47:00.525Z,3.50
2019-04-22T17:49:50.827Z,3.67
2019-04-22T17:52:21.024Z,3.95
2019-04-22T17:54:49.424Z,5.20
2019-04-22T17:57:19.597Z,6.25
2019-04-22T17:59:46.589Z,4.47
2019-04-22T18:02:15.393Z,4.85
2019-04-22T18:04:33.964Z,3.10
2019-04-22T18:07:27.468Z,4.08
2019-04-22T18:10:16.222Z,4.28
2019-04-22T18:14:49.740Z,4.17
2019-04-22T18:17:17.295Z,9.28
2019-04-22T18:19:39.944Z,5.58
2019-04-22T18:22:07.078Z,6.78
2019-04-22T18:24:32.665Z,5.17
2019-04-22T18:27:20.220Z,4.60
2019-04-22T18:29:43.457Z,4.72
2019-04-22T18:32:03.015Z,4.25
2019-04-22T18:34:36.639Z,9.75
2019-04-22T18:37:03.971Z,6.55
2019-04-22T18:39:47.263Z,6.50
2019-04-22T18:42:06.023Z,4.70
2019-04-22T18:44:44.527Z,7.65
2019-04-22T18:47:10.613Z,5.28
2019-04-22T18:49:37.383Z,5.47
2019-04-22T18:52:13.474Z,5.40
2019-04-22T18:54:56.923Z,5.05
2019-04-22T18:57:26.340Z,4.33
2019-04-22T18:59:44.102Z,3.47
2019-04-22T19:02:11.794Z,6.30
2019-04-22T19:04:44.610Z,7.83
2019-04-22T19:07:36.763Z,5.65
2019-04-22T19:10:06.313Z,8.30
2019-04-22T19:14:57.057Z,5.50
2019-04-22T19:17:32.734Z,5.22
2019-04-22T19:20:05.476Z,5.80
2019-04-22T19:22:25.193Z,5.00
2019-04-22T19:24:47.941Z,5.33
2019-04-22T19:27:20.124Z,4.30
2019-04-22T19:29:57.474Z,6.00
2019-04-22T19:32:21.439Z,8.55
2019-04-22T19:34:51.003Z,7.42
2019-04-22T19:37:17.417Z,4.65
2019-04-22T19:40:00.887Z,4.22
2019-04-22T19:42:25.562Z,5.78
2019-04-22T19:44:53.185Z,7.33
2019-04-22T19:47:38.934Z,5.75
2019-04-22T19:52:24.452Z,5.53
2019-04-22T19:54:53.410Z,4.45
2019-04-22T19:57:11.717Z,8.70
2019-04-22T19:59:45.322Z,6.00
2019-04-22T20:02:25.051Z,4.10
2019-04-22T20:04:59.726Z,6.65
2019-04-22T20:07:26.279Z,9.78
2019-04-22T20:10:02.148Z,5.92
2019-04-22T20:12:24.612Z,4.90
2019-04-22T20:14:59.325Z,5.50
2019-04-22T20:17:30.062Z,6.83
2019-04-22T20:20:02.848Z,6.95
2019-04-22T20:22:25.232Z,5.83
2019-04-22T20:24:47.622Z,8.85
2019-04-22T20:27:25.231Z,7.15
2019-04-22T20:29:59.322Z,5.92
2019-04-22T20:32:23.519Z,6.92
2019-04-22T20:34:57.594Z,7.33
2019-04-22T20:37:30.056Z,6.87
2019-04-22T20:39:58.569Z,14.15
2019-04-22T20:42:39.018Z,4.85
2019-04-22T20:44:51.681Z,5.87
2019-04-22T20:47:16.582Z,10.15
2019-04-22T20:49:47.458Z,9.00
2019-04-22T20:52:32.661Z,9.88
2019-04-22T20:54:45.029Z,6.33
2019-04-22T20:57:15.794Z,5.83
2019-04-22T20:59:48.468Z,5.95
2019-04-22T21:02:14.141Z,6.90
2019-04-22T21:04:38.209Z,8.83
2019-04-22T21:07:16.838Z,7.12
2019-04-22T21:09:45.234Z,7.80
2019-04-22T21:12:12.175Z,6.08
2019-04-22T21:14:51.460Z,7.72
2019-04-22T21:17:13.544Z,9.10
2019-04-22T21:19:54.375Z,7.53
2019-04-22T21:22:16.472Z,10.53
2019-04-22T21:24:43.744Z,7.45
2019-04-22T21:27:21.024Z,10.93
2019-04-22T21:29:38.758Z,5.08
2019-04-22T21:32:15.650Z,6.67
2019-04-22T21:34:48.460Z,10.03
2019-04-22T21:37:14.188Z,7.08
2019-04-22T21:39:36.696Z,6.40
2019-04-22T21:42:14.227Z,9.68
2019-04-22T21:44:38.133Z,10.50
2019-04-22T21:47:14.629Z,9.10
2019-04-22T21:49:45.944Z,8.15
2019-04-22T21:52:13.626Z,10.40
2019-04-22T21:54:46.749Z,8.93
2019-04-22T21:57:24.589Z,7.65
2019-04-22T21:59:46.113Z,10.30
2019-04-22T22:04:48.942Z,14.78
2019-04-22T22:07:11.005Z,15.15
2019-04-22T22:09:50.664Z,9.80
2019-04-22T22:12:17.847Z,15.28
2019-04-22T22:14:50.062Z,10.93
2019-04-22T22:17:17.301Z,16.55
2019-04-22T22:19:45.511Z,15.32
2019-04-22T22:22:35.037Z,17.67
2019-04-22T22:24:54.765Z,14.87
2019-04-22T22:27:18.550Z,12.70
2019-04-22T22:32:16.542Z,13.25
2019-04-22T22:34:48.931Z,12.20
2019-04-22T22:37:06.437Z,11.80
2019-04-22T22:39:38.084Z,13.13
2019-04-22T22:41:54.134Z,20.97
2019-04-22T22:44:32.154Z,15.30
2019-04-22T22:47:10.129Z,11.28
2019-04-22T22:49:42.470Z,10.80
2019-04-22T22:52:40.909Z,12.55
2019-04-22T22:54:43.933Z,9.08
2019-04-22T22:57:17.799Z,8.93
2019-04-22T22:59:40.300Z,7.28
2019-04-22T23:02:09.647Z,10.65
2019-04-22T23:04:39.628Z,13.55
2019-04-22T23:07:11.423Z,10.32
2019-04-22T23:09:36.685Z,12.73
2019-04-22T23:12:17.519Z,6.12
2019-04-22T23:14:36.743Z,16.42
2019-04-22T23:16:53.801Z,9.15
2019-04-22T23:19:15.592Z,8.78
2019-04-22T23:21:49.364Z,9.98
2019-04-22T23:24:47.008Z,8.28
2019-04-22T23:27:20.574Z,8.60
2019-04-22T23:29:46.355Z,11.05
2019-04-22T23:32:18.491Z,7.00
2019-04-22T23:34:56.007Z,8.38
2019-04-22T23:37:35.274Z,8.90
2019-04-22T23:40:17.375Z,9.10
2019-04-22T23:42:41.412Z,9.20
2019-04-22T23:45:09.045Z,11.43
2019-04-22T23:47:30.933Z,9.95
2019-04-22T23:50:09.609Z,10.05
2019-04-22T23:52:44.851Z,12.98
2019-04-22T23:55:11.660Z,12.30
2019-04-22T23:57:45.407Z,13.60
